Search for airport 
image banner adimage banner adimage banner ad
image banner ad

O81 - Tulelake Muni

Located in Tulelake, United States

ICAO - O81, IATA -

Data provided by Airmate  

General information

Coordinates: N41°53'26" W121°21'38"
Elevation is 4044 feet MSL.
Magnetic variation is 17° East
View others Airports in California

Operational data

Special qualification required
Current time UTC:
Current local time:
Weather at : KLMT - Crater Lake-Klamath Rgnl ( 43 km )
METAR: KLMT 211153Z AUTO 10003KT 10SM CLR 12/09 A3002 RMK AO2 SLP115 T01220089 10222 20122 53002
TAF: KLMT 211132Z 2112/2212 VRB03KT P6SM SKC FM212300 30013G22KT P6SM SCT090 BKN150 FM220200 32015G25KT P6SM VCTS BKN090CB BKN150 FM220500 33006KT P6SM BKN150
View NOTAMs / SUP AIP / TFR affecting this airport [VIEW]
Communications frequencies: [VIEW]

Runways:

RWY identifierQFULength (ft)Width (ft)SurfaceLDA (ft)
11129°357744ASPH
29309°357744ASPH

Airport contact information

Address: Tulelake United States

Satellite view of O81